createdAt,value
2023-04-25T00:00:43.170Z,9.303093
2023-04-25T00:01:43.209Z,9.303055
2023-04-25T00:02:43.359Z,9.303048
2023-04-25T00:03:43.298Z,9.303087
2023-04-25T00:04:43.570Z,9.303132
2023-04-25T00:05:43.144Z,9.303063
2023-04-25T00:06:44.120Z,9.303100
2023-04-25T00:07:43.141Z,9.303068
2023-04-25T00:08:43.088Z,9.303101
2023-04-25T00:09:43.117Z,9.303164
2023-04-25T00:10:43.086Z,9.303123
2023-04-25T00:11:43.091Z,9.303153
2023-04-25T00:12:43.105Z,9.303113
2023-04-25T00:13:43.186Z,9.303102
2023-04-25T00:14:43.035Z,9.303170
2023-04-25T00:15:43.163Z,9.303083
2023-04-25T00:16:43.096Z,9.303071
2023-04-25T00:17:43.145Z,9.303077
2023-04-25T00:18:43.525Z,9.303082
2023-04-25T00:19:43.015Z,9.303056
2023-04-25T00:20:43.111Z,9.303061
2023-04-25T00:21:42.971Z,9.303092
2023-04-25T00:22:43.116Z,9.303093
2023-04-25T00:23:42.976Z,9.303113
2023-04-25T00:24:42.955Z,9.303260
2023-04-25T00:25:42.974Z,9.303133
2023-04-25T00:26:42.942Z,9.302950
2023-04-25T00:27:42.926Z,9.302999
2023-04-25T00:28:42.926Z,9.303070
2023-04-25T00:29:42.927Z,9.303081
2023-04-25T00:30:42.920Z,9.303070
2023-04-25T00:31:42.911Z,9.303052
2023-04-25T00:32:42.943Z,9.303042
2023-04-25T00:33:42.872Z,9.302995
2023-04-25T00:34:42.949Z,9.303009
2023-04-25T00:35:42.857Z,9.303012
2023-04-25T00:36:42.821Z,9.303240
2023-04-25T00:37:42.891Z,9.303371
2023-04-25T00:38:42.814Z,9.303116
2023-04-25T00:39:42.830Z,9.303002
2023-04-25T00:40:42.822Z,9.302901
2023-04-25T00:41:42.833Z,9.303005
2023-04-25T00:42:42.789Z,9.302962
2023-04-25T00:43:42.779Z,9.303012
2023-04-25T00:44:42.760Z,9.303058
2023-04-25T00:45:42.771Z,9.303015
2023-04-25T00:46:42.786Z,9.303061
2023-04-25T00:47:42.738Z,9.303072
2023-04-25T00:48:42.712Z,9.303047
2023-04-25T00:49:42.737Z,9.303032
2023-04-25T00:50:42.697Z,9.303019
2023-04-25T00:51:42.698Z,9.303081
2023-04-25T00:52:42.717Z,9.303066
2023-04-25T00:53:42.657Z,9.303076
2023-04-25T00:54:42.662Z,9.303021
2023-04-25T00:55:42.642Z,9.303069
2023-04-25T00:56:42.637Z,9.303048
2023-04-25T00:57:42.654Z,9.303013
2023-04-25T00:58:42.661Z,9.302997
2023-04-25T00:59:42.642Z,9.302979
2023-04-25T01:00:42.691Z,9.303002
2023-04-25T01:01:42.651Z,9.303013
2023-04-25T01:02:42.736Z,9.303013
2023-04-25T01:03:42.729Z,9.303005
2023-04-25T01:04:42.575Z,9.303086
2023-04-25T01:05:42.587Z,9.302996
2023-04-25T01:06:42.582Z,9.303031
2023-04-25T01:07:42.521Z,9.303025
2023-04-25T01:08:42.540Z,9.302989
2023-04-25T01:09:42.516Z,9.303036
2023-04-25T01:10:42.508Z,9.302978
2023-04-25T01:11:42.584Z,9.303061
2023-04-25T01:12:42.478Z,9.303099
2023-04-25T01:13:42.492Z,9.303047
2023-04-25T01:14:42.507Z,9.303081
2023-04-25T01:15:42.468Z,9.303102
2023-04-25T01:16:42.577Z,9.303026
2023-04-25T01:17:42.549Z,9.303053
2023-04-25T01:18:42.425Z,9.303062
2023-04-25T01:19:42.451Z,9.303100
2023-04-25T01:20:42.420Z,9.303062
2023-04-25T01:21:42.399Z,9.303097
2023-04-25T01:22:42.390Z,9.303207
2023-04-25T01:23:42.410Z,9.303107
2023-04-25T01:24:42.386Z,9.303066
2023-04-25T01:25:42.364Z,9.303059
2023-04-25T01:26:42.409Z,9.303132
2023-04-25T01:27:42.334Z,9.303074
2023-04-25T01:28:42.446Z,9.303094
2023-04-25T01:29:42.414Z,9.303049
2023-04-25T01:30:42.307Z,9.303104
2023-04-25T01:31:42.327Z,9.303058
2023-04-25T01:32:42.354Z,9.303122
2023-04-25T01:33:42.281Z,9.302992
2023-04-25T01:34:42.300Z,9.303024
2023-04-25T01:35:42.295Z,9.302950
2023-04-25T01:36:42.339Z,9.303053
2023-04-25T01:37:42.241Z,9.303026
2023-04-25T01:38:42.230Z,9.302992
2023-04-25T01:39:42.275Z,9.302980
2023-04-25T01:40:42.209Z,9.303024
2023-04-25T01:41:42.252Z,9.303031
2023-04-25T01:42:42.206Z,9.303060
2023-04-25T01:43:42.197Z,9.303088
2023-04-25T01:44:42.188Z,9.303062
2023-04-25T01:45:42.271Z,9.303100
2023-04-25T01:46:42.165Z,9.303030
2023-04-25T01:47:42.171Z,9.303042
2023-04-25T01:48:42.180Z,9.303003
2023-04-25T01:49:42.131Z,9.303090
2023-04-25T01:50:42.111Z,9.303011
2023-04-25T01:51:42.154Z,9.303038
2023-04-25T01:52:42.110Z,9.303038
2023-04-25T01:53:42.109Z,9.303075
2023-04-25T01:54:42.091Z,9.303052
2023-04-25T01:55:42.088Z,9.303078
2023-04-25T01:56:42.075Z,9.302979
2023-04-25T01:57:42.045Z,9.302987
2023-04-25T01:58:42.051Z,9.302976
2023-04-25T01:59:42.038Z,9.303050
2023-04-25T02:00:42.067Z,9.303075
2023-04-25T02:01:42.178Z,9.303052
2023-04-25T02:02:42.151Z,9.303036
2023-04-25T02:03:42.157Z,9.303053
2023-04-25T02:04:42.140Z,9.303062
2023-04-25T02:05:42.002Z,9.303099
2023-04-25T02:06:42.103Z,9.303124
2023-04-25T02:07:42.963Z,9.303086
2023-04-25T02:08:41.962Z,9.303052
2023-04-25T02:09:41.945Z,9.303070
2023-04-25T02:10:41.934Z,9.303043
2023-04-25T02:11:41.964Z,9.303056
2023-04-25T02:12:41.919Z,9.303082
2023-04-25T02:13:41.925Z,9.303012
2023-04-25T02:14:41.927Z,9.302937
2023-04-25T02:15:41.938Z,9.303001
2023-04-25T02:16:41.996Z,9.303000
2023-04-25T02:17:41.936Z,9.302988
2023-04-25T02:18:41.875Z,9.302948
2023-04-25T02:19:41.852Z,9.302937
2023-04-25T02:20:41.829Z,9.303008
2023-04-25T02:21:41.833Z,9.303052
2023-04-25T02:22:41.835Z,9.303012
2023-04-25T02:23:41.790Z,9.303028
2023-04-25T02:24:41.794Z,9.303048
2023-04-25T02:25:41.794Z,9.303006
2023-04-25T02:26:41.795Z,9.303020
2023-04-25T02:27:41.794Z,9.302835
2023-04-25T02:28:41.770Z,9.302941
2023-04-25T02:29:41.856Z,9.302982
2023-04-25T02:30:41.751Z,9.302970
2023-04-25T02:31:41.792Z,9.302913
2023-04-25T02:32:41.747Z,9.302945
2023-04-25T02:33:41.708Z,9.303061
2023-04-25T02:34:42.490Z,9.302999
2023-04-25T02:35:41.694Z,9.303025
2023-04-25T02:36:41.701Z,9.303054
2023-04-25T02:37:41.696Z,9.302948
2023-04-25T02:38:41.691Z,9.302999
2023-04-25T02:39:41.668Z,9.303016
2023-04-25T02:40:41.654Z,9.302943
2023-04-25T02:41:41.677Z,9.302920
2023-04-25T02:42:41.658Z,9.302995
2023-04-25T02:43:41.624Z,9.302857
2023-04-25T02:44:41.639Z,9.302979
2023-04-25T02:45:41.619Z,9.303118
2023-04-25T02:46:41.627Z,9.303172
2023-04-25T02:47:41.644Z,9.303048
2023-04-25T02:48:41.619Z,9.302967
2023-04-25T02:49:41.584Z,9.303027
2023-04-25T02:50:41.580Z,9.303012
2023-04-25T02:51:41.618Z,9.303091
2023-04-25T02:52:41.542Z,9.303012
2023-04-25T02:53:41.531Z,9.303045
2023-04-25T02:54:41.517Z,9.302977
2023-04-25T02:55:41.570Z,9.302994
2023-04-25T02:56:41.530Z,9.302982
2023-04-25T02:57:41.483Z,9.302931
2023-04-25T02:58:41.491Z,9.302931
2023-04-25T02:59:41.495Z,9.302913
2023-04-25T03:00:41.515Z,9.302902
2023-04-25T03:01:42.516Z,9.302949
2023-04-25T03:02:41.478Z,9.303001
2023-04-25T03:03:41.459Z,9.302826
2023-04-25T03:04:41.463Z,9.302914
2023-04-25T03:06:14.889Z,9.303022
2023-04-25T03:06:41.909Z,9.302938
2023-04-25T03:15:55.401Z,9.303187
2023-04-25T03:17:29.395Z,9.303058
2023-04-25T03:18:38.142Z,9.303074
2023-04-25T03:19:33.826Z,9.302873
2023-04-25T03:24:59.948Z,9.303183
2023-04-25T03:32:27.681Z,9.303146
2023-04-25T03:32:50.586Z,9.303146
2023-04-25T03:33:34.205Z,9.303120
2023-04-25T03:34:34.119Z,9.303006
2023-04-25T03:35:34.144Z,9.303026
2023-04-25T03:37:07.992Z,9.302969
2023-04-25T03:38:01.015Z,9.303041
2023-04-25T03:39:15.665Z,9.302995
2023-04-25T03:39:34.428Z,9.303049
2023-04-25T03:51:07.068Z,9.303065
2023-04-25T03:51:34.056Z,9.303089
2023-04-25T03:52:33.663Z,9.303127
2023-04-25T03:54:06.926Z,9.303166
2023-04-25T03:54:36.870Z,9.303129
2023-04-25T03:55:34.044Z,9.303102
2023-04-25T03:57:01.133Z,9.303051
2023-04-25T03:58:06.109Z,9.302892
2023-04-25T03:58:34.282Z,9.302854
2023-04-25T04:10:50.043Z,9.302983
2023-04-25T04:11:15.647Z,9.303050
2023-04-25T04:12:15.975Z,9.303162
2023-04-25T04:13:15.541Z,9.303116
2023-04-25T04:14:49.152Z,9.303126
2023-04-25T04:15:15.533Z,9.303070
2023-04-25T04:16:55.591Z,9.303058
2023-04-25T04:17:15.701Z,9.303041
2023-04-25T04:18:49.366Z,9.303126
2023-04-25T04:19:15.775Z,9.303159
2023-04-25T04:20:53.968Z,9.303113
2023-04-25T04:21:48.457Z,9.303129
2023-04-25T04:22:16.370Z,9.303145
2023-04-25T04:23:48.041Z,9.303126
2023-04-25T04:24:17.024Z,9.303104
2023-04-25T04:25:48.345Z,9.303066
2023-04-25T04:26:15.332Z,9.303172
2023-04-25T04:27:49.222Z,9.303198
2023-04-25T04:28:47.728Z,9.303101
2023-04-25T04:29:15.302Z,9.303005
2023-04-25T04:38:13.444Z,9.303397
2023-04-25T04:38:42.012Z,9.303344
2023-04-25T04:39:40.558Z,9.303176
2023-04-25T04:40:40.580Z,9.303165
2023-04-25T04:41:40.634Z,9.303131
2023-04-25T04:42:41.689Z,9.303146
2023-04-25T04:43:40.545Z,9.303217
2023-04-25T04:44:40.463Z,9.303185
2023-04-25T04:45:40.458Z,9.303198
2023-04-25T04:46:40.502Z,9.303195
2023-04-25T04:47:40.662Z,9.303160
2023-04-25T04:48:40.395Z,9.303065
2023-04-25T04:49:40.484Z,9.303093
2023-04-25T04:50:40.350Z,9.303063
2023-04-25T04:51:40.470Z,9.303033
2023-04-25T04:52:40.418Z,9.303081
2023-04-25T04:53:40.503Z,9.303085
2023-04-25T04:54:42.501Z,9.303127
2023-04-25T04:55:40.365Z,9.303081
2023-04-25T04:56:40.397Z,9.303145
2023-04-25T04:57:40.384Z,9.303111
2023-04-25T04:58:40.269Z,9.303229
2023-04-25T04:59:40.300Z,9.303077
2023-04-25T05:00:40.302Z,9.303124
2023-04-25T05:01:40.302Z,9.303121
2023-04-25T05:02:40.783Z,9.303174
2023-04-25T05:03:41.607Z,9.303146
2023-04-25T05:04:40.617Z,9.303164
2023-04-25T05:05:40.203Z,9.303177
2023-04-25T05:06:40.311Z,9.303218
2023-04-25T05:07:40.234Z,9.303197
2023-04-25T05:08:40.175Z,9.303164
2023-04-25T05:09:41.675Z,9.303145
2023-04-25T05:10:40.516Z,9.303121
2023-04-25T05:11:40.238Z,9.303168
2023-04-25T05:13:12.746Z,9.303239
2023-04-25T05:13:40.186Z,9.303132
2023-04-25T05:14:40.758Z,9.303052
2023-04-25T05:15:40.026Z,9.303056
2023-04-25T05:16:41.057Z,9.303046
2023-04-25T05:17:40.114Z,9.303145
2023-04-25T05:18:40.010Z,9.303107
2023-04-25T05:19:40.042Z,9.303122
2023-04-25T05:20:39.972Z,9.303098
2023-04-25T05:21:40.785Z,9.303047
2023-04-25T05:22:40.025Z,9.303112
2023-04-25T05:23:39.945Z,9.303131
2023-04-25T05:24:39.945Z,9.303204
2023-04-25T05:25:39.927Z,9.303076
2023-04-25T05:26:40.054Z,9.303102
2023-04-25T05:27:39.882Z,9.303075
2023-04-25T05:28:39.904Z,9.303114
2023-04-25T05:29:39.887Z,9.303091
2023-04-25T05:30:39.935Z,9.303070
2023-04-25T05:31:39.948Z,9.303046
2023-04-25T05:32:39.887Z,9.303039
2023-04-25T05:33:39.883Z,9.302974
2023-04-25T05:34:39.910Z,9.303083
2023-04-25T05:35:39.826Z,9.303059
2023-04-25T05:36:39.837Z,9.303005
2023-04-25T05:37:39.806Z,9.303076
2023-04-25T05:38:39.785Z,9.303119
2023-04-25T05:39:39.797Z,9.302996
2023-04-25T05:40:39.770Z,9.302975
2023-04-25T05:41:39.802Z,9.302986
2023-04-25T05:42:39.757Z,9.302964
2023-04-25T05:43:40.790Z,9.302969
2023-04-25T05:44:39.739Z,9.302990
2023-04-25T05:45:39.769Z,9.303035
2023-04-25T05:46:39.711Z,9.303037
2023-04-25T05:47:39.763Z,9.303072
2023-04-25T05:48:39.702Z,9.303068
2023-04-25T05:49:39.662Z,9.303091
2023-04-25T05:50:39.681Z,9.303049
2023-04-25T05:51:39.724Z,9.303015
2023-04-25T05:52:39.694Z,9.303112
2023-04-25T05:53:39.653Z,9.303083
2023-04-25T05:54:39.640Z,9.303080
2023-04-25T05:55:39.631Z,9.302977
2023-04-25T05:56:39.658Z,9.302904
2023-04-25T05:57:39.595Z,9.303052
2023-04-25T05:58:39.587Z,9.303023
2023-04-25T05:59:39.603Z,9.303073
2023-04-25T06:00:39.701Z,9.303066
2023-04-25T06:01:39.547Z,9.302916
2023-04-25T06:02:39.660Z,9.302872
2023-04-25T06:03:39.831Z,9.302864
2023-04-25T06:04:39.613Z,9.302901
2023-04-25T06:05:39.576Z,9.302771
2023-04-25T06:06:39.573Z,9.302934
2023-04-25T06:07:39.541Z,9.302973
2023-04-25T06:08:39.528Z,9.303044
2023-04-25T06:09:39.573Z,9.302968
2023-04-25T06:10:39.529Z,9.303017
2023-04-25T06:11:39.512Z,9.302981
2023-04-25T06:12:39.526Z,9.303019
2023-04-25T06:13:39.481Z,9.302950
2023-04-25T06:14:39.559Z,9.303001
2023-04-25T06:15:39.492Z,9.302973
2023-04-25T06:16:39.555Z,9.302979
2023-04-25T06:17:39.450Z,9.302979
